Disclaimer

Please do not use the information listed here in-flight or in-navigation, as they are not provided to us by the airports but are provided by volunteers, so they might be outdated.

Search


Regions


Airport information page

No radio frequency information is available.

Airport informations:
Latitude: 36° 42' 43.19" N
Longitude: 005° 04' 11.72" E
Elevation: 20 feet - 6 meters
Operating hours: Remarks
Operating agency: Civil government, landing fees and diplomatic clearance may be required
Timezone: UTC+1 - Dates notified by NOTAM
Fuel: Unknown fuel type or whether there is any fuel.

Runway information:
08/26 - 7874 x 148 feet< - >2400 x 45 meters

Recent METARs:
DAAE 130200Z 24007KT CAVOK 09/07 Q1017
DAAE 130300Z 25008KT CAVOK 09/07 Q1017
DAAE 130300Z 25008KT CAVOK 09/07 Q1017

Airport on the map: